createdAt,value
2017-09-19T00:01:46.679Z,4.73
2017-09-19T00:04:14.950Z,5.50
2017-09-19T00:06:43.259Z,4.90
2017-09-19T00:09:11.685Z,5.27
2017-09-19T00:11:40.043Z,5.40
2017-09-19T00:14:09.314Z,5.50
2017-09-19T00:16:37.676Z,5.50
2017-09-19T00:19:06.427Z,5.90
2017-09-19T00:21:34.743Z,6.83
2017-09-19T00:24:03.101Z,6.43
2017-09-19T00:26:31.382Z,6.10
2017-09-19T00:29:00.451Z,7.30
2017-09-19T00:31:28.763Z,5.90
2017-09-19T00:33:57.075Z,7.90
2017-09-19T00:36:25.503Z,6.80
2017-09-19T00:38:54.093Z,6.33
2017-09-19T00:41:22.439Z,5.93
2017-09-19T00:43:50.714Z,6.13
2017-09-19T00:46:19.083Z,7.30
2017-09-19T00:48:47.390Z,6.13
2017-09-19T00:51:15.795Z,6.33
2017-09-19T00:53:44.099Z,7.00
2017-09-19T00:56:12.411Z,6.30
2017-09-19T00:58:40.672Z,6.63
2017-09-19T01:01:09.031Z,7.10
2017-09-19T01:03:37.380Z,6.20
2017-09-19T01:06:05.750Z,6.37
2017-09-19T01:08:34.859Z,7.37
2017-09-19T01:11:03.979Z,6.50
2017-09-19T01:13:33.060Z,6.40
2017-09-19T01:16:01.335Z,5.70
2017-09-19T01:18:29.668Z,6.20
2017-09-19T01:20:57.943Z,7.13
2017-09-19T01:23:26.255Z,7.40
2017-09-19T01:25:54.594Z,7.07
2017-09-19T01:28:23.690Z,6.77
2017-09-19T01:30:51.998Z,6.03
2017-09-19T01:33:20.339Z,6.07
2017-09-19T01:35:49.389Z,7.43
2017-09-19T01:38:17.686Z,6.83
2017-09-19T01:40:45.967Z,6.73
2017-09-19T01:43:15.038Z,6.80
2017-09-19T01:45:43.339Z,7.90
2017-09-19T01:48:11.623Z,8.17
2017-09-19T01:50:39.935Z,6.77
2017-09-19T01:53:08.676Z,6.60
2017-09-19T01:55:37.205Z,7.93
2017-09-19T01:58:05.714Z,6.93
2017-09-19T02:00:34.002Z,5.90
2017-09-19T02:03:03.088Z,6.43
2017-09-19T02:05:32.183Z,7.13
2017-09-19T02:08:00.513Z,9.00
2017-09-19T02:10:28.791Z,6.80
2017-09-19T02:12:57.103Z,5.83
2017-09-19T02:15:25.558Z,7.70
2017-09-19T02:17:54.727Z,8.13
2017-09-19T02:20:23.047Z,7.07
2017-09-19T02:22:52.899Z,7.80
2017-09-19T02:25:21.175Z,7.73
2017-09-19T02:27:49.595Z,8.10
2017-09-19T02:30:17.906Z,8.53
2017-09-19T02:32:46.188Z,8.20
2017-09-19T02:35:14.700Z,8.67
2017-09-19T02:37:42.979Z,8.80
2017-09-19T02:40:11.266Z,8.53
2017-09-19T02:42:39.691Z,8.50
2017-09-19T02:45:08.215Z,8.73
2017-09-19T02:47:36.720Z,9.23
2017-09-19T02:50:05.216Z,10.20
2017-09-19T02:52:33.558Z,9.30
2017-09-19T02:55:01.863Z,8.87
2017-09-19T02:57:30.943Z,9.00
2017-09-19T02:59:59.244Z,9.13
2017-09-19T03:02:27.555Z,10.40
2017-09-19T03:04:55.882Z,9.60
2017-09-19T03:07:24.182Z,8.80
2017-09-19T03:09:52.587Z,9.03
2017-09-19T03:12:20.871Z,8.80
2017-09-19T03:14:49.192Z,9.17
2017-09-19T03:17:17.480Z,9.77
2017-09-19T03:19:45.994Z,13.00
2017-09-19T03:22:14.279Z,9.30
2017-09-19T03:24:42.559Z,9.57
2017-09-19T03:27:10.879Z,10.40
2017-09-19T03:29:39.326Z,8.77
2017-09-19T03:32:08.010Z,8.70
2017-09-19T03:34:36.362Z,8.80
2017-09-19T03:37:06.324Z,9.00
2017-09-19T03:39:35.507Z,9.57
2017-09-19T03:42:03.937Z,8.73
2017-09-19T03:44:33.017Z,9.13
2017-09-19T03:47:02.119Z,8.67
2017-09-19T03:49:30.399Z,8.60
2017-09-19T03:51:58.718Z,9.83
2017-09-19T03:54:26.999Z,8.77
2017-09-19T03:56:55.350Z,8.47
2017-09-19T03:59:23.964Z,8.27
2017-09-19T04:01:52.244Z,8.77
2017-09-19T04:04:20.523Z,9.60
2017-09-19T04:06:48.839Z,8.70
2017-09-19T04:09:17.147Z,8.57
2017-09-19T04:11:45.463Z,9.13
2017-09-19T04:14:13.747Z,9.23
2017-09-19T04:16:42.063Z,9.50
2017-09-19T04:19:10.338Z,8.03
2017-09-19T04:21:38.659Z,10.40
2017-09-19T04:24:07.074Z,7.63
2017-09-19T04:26:35.358Z,8.07
2017-09-19T04:29:03.639Z,8.87
2017-09-19T04:31:31.951Z,9.57
2017-09-19T04:34:00.262Z,8.57
2017-09-19T04:36:28.542Z,10.47
2017-09-19T04:38:56.855Z,8.33
2017-09-19T04:41:25.143Z,7.60
2017-09-19T04:43:53.476Z,8.97
2017-09-19T04:46:21.755Z,8.63
2017-09-19T04:48:50.067Z,8.47
2017-09-19T04:51:18.478Z,8.10
2017-09-19T04:53:46.782Z,7.83
2017-09-19T04:56:15.107Z,9.60
2017-09-19T04:58:43.415Z,9.53
2017-09-19T05:01:11.723Z,8.20
2017-09-19T05:03:40.812Z,7.47
2017-09-19T05:06:09.095Z,8.50
2017-09-19T05:08:37.419Z,8.23
2017-09-19T05:11:05.723Z,8.10
2017-09-19T05:13:35.555Z,8.30
2017-09-19T05:16:04.053Z,8.67
2017-09-19T05:18:32.458Z,9.60
2017-09-19T05:21:00.739Z,10.00
2017-09-19T05:23:29.163Z,9.73
2017-09-19T05:25:57.466Z,9.00
2017-09-19T05:28:25.745Z,8.30
2017-09-19T05:30:54.055Z,9.37
2017-09-19T05:33:22.343Z,7.83
2017-09-19T05:35:50.655Z,8.63
2017-09-19T05:38:18.968Z,9.10
2017-09-19T05:40:47.282Z,9.53
2017-09-19T05:43:15.603Z,9.30
2017-09-19T05:45:43.922Z,10.00
2017-09-19T05:48:12.971Z,9.70
2017-09-19T05:50:41.416Z,10.50
2017-09-19T05:53:09.699Z,11.10
2017-09-19T05:55:38.018Z,11.10
2017-09-19T05:58:06.423Z,11.77
2017-09-19T06:00:34.723Z,9.90
2017-09-19T06:03:03.875Z,11.63
2017-09-19T06:05:32.955Z,12.03
2017-09-19T06:08:01.360Z,11.30
2017-09-19T06:10:29.675Z,10.93
2017-09-19T06:12:57.963Z,11.20
2017-09-19T06:15:26.382Z,12.37
2017-09-19T06:17:54.671Z,12.00
2017-09-19T06:20:22.992Z,13.07
2017-09-19T06:22:51.316Z,13.03
2017-09-19T06:25:20.371Z,12.67
2017-09-19T06:27:48.688Z,15.80
2017-09-19T06:30:17.007Z,12.70
2017-09-19T06:32:45.321Z,12.63
2017-09-19T06:35:13.639Z,13.87
2017-09-19T06:37:42.695Z,12.97
2017-09-19T06:40:11.015Z,12.60
2017-09-19T06:42:39.331Z,14.40
2017-09-19T06:45:07.629Z,12.67
2017-09-19T06:47:35.971Z,12.90
2017-09-19T06:50:05.071Z,13.30
2017-09-19T06:52:33.359Z,11.40
2017-09-19T06:55:01.683Z,12.73
2017-09-19T06:57:30.739Z,12.90
2017-09-19T06:59:59.068Z,13.63
2017-09-19T07:02:27.358Z,11.47
2017-09-19T07:04:55.768Z,12.20
2017-09-19T07:07:24.083Z,12.53
2017-09-19T07:09:52.426Z,12.83
2017-09-19T07:12:21.479Z,12.10
2017-09-19T07:14:49.810Z,11.93
2017-09-19T07:17:18.142Z,11.90
2017-09-19T07:19:47.204Z,13.53
2017-09-19T07:22:15.491Z,12.00
2017-09-19T07:24:43.810Z,11.30
2017-09-19T07:27:12.094Z,12.23
2017-09-19T07:29:40.423Z,10.57
2017-09-19T07:32:08.739Z,11.53
2017-09-19T07:34:37.071Z,12.23
2017-09-19T07:37:05.367Z,11.47
2017-09-19T07:39:33.654Z,11.90
2017-09-19T07:42:02.035Z,11.10
2017-09-19T07:44:30.314Z,10.57
2017-09-19T07:46:58.647Z,11.60
2017-09-19T07:49:26.931Z,10.80
2017-09-19T07:51:55.250Z,11.30
2017-09-19T07:54:23.575Z,10.20
2017-09-19T07:56:51.863Z,10.83
2017-09-19T07:59:20.183Z,10.40
2017-09-19T08:01:50.227Z,10.53
2017-09-19T08:04:18.494Z,10.37
2017-09-19T08:06:46.781Z,11.33
2017-09-19T08:09:15.102Z,11.67
2017-09-19T08:11:43.386Z,9.03
2017-09-19T08:14:11.715Z,10.47
2017-09-19T08:16:40.027Z,9.60
2017-09-19T08:19:09.846Z,8.87
2017-09-19T08:21:38.255Z,8.30
2017-09-19T08:24:06.563Z,10.20
2017-09-19T08:26:34.879Z,8.37
2017-09-19T08:29:03.939Z,8.90
2017-09-19T08:31:32.265Z,8.17
2017-09-19T08:34:00.534Z,9.17
2017-09-19T08:36:28.843Z,8.00
2017-09-19T08:38:57.123Z,9.20
2017-09-19T08:41:26.303Z,7.10
2017-09-19T08:43:54.579Z,7.30
2017-09-19T08:46:22.902Z,6.20
2017-09-19T08:48:51.210Z,5.90
2017-09-19T08:51:19.523Z,4.80
2017-09-19T08:53:47.911Z,4.63
2017-09-19T08:56:16.219Z,5.40
2017-09-19T08:58:44.603Z,4.37
2017-09-19T09:01:12.879Z,3.80
2017-09-19T09:03:41.191Z,3.00
2017-09-19T09:06:09.498Z,3.83
2017-09-19T09:08:37.822Z,3.60
2017-09-19T09:11:06.131Z,3.10
2017-09-19T09:13:34.443Z,2.67
2017-09-19T09:16:02.763Z,2.03
2017-09-19T09:18:31.043Z,1.97
2017-09-19T09:20:59.386Z,2.40
2017-09-19T09:23:28.430Z,2.20
2017-09-19T09:25:56.755Z,1.27
2017-09-19T09:28:25.066Z,1.50
2017-09-19T09:30:53.359Z,2.33
2017-09-19T09:33:21.862Z,2.70
2017-09-19T09:35:50.139Z,1.67
2017-09-19T09:38:18.414Z,2.13
2017-09-19T09:40:47.491Z,2.20
2017-09-19T09:43:15.787Z,2.93
2017-09-19T09:45:44.107Z,2.07
2017-09-19T09:48:12.387Z,1.80
2017-09-19T09:50:40.691Z,1.57
2017-09-19T09:53:09.003Z,1.40
2017-09-19T09:55:37.295Z,1.50
2017-09-19T09:58:05.623Z,1.30
2017-09-19T10:00:33.915Z,1.60
2017-09-19T10:03:02.220Z,1.10
2017-09-19T10:05:30.503Z,1.80
2017-09-19T10:07:58.823Z,2.57
2017-09-19T10:10:27.105Z,1.63
2017-09-19T10:12:55.406Z,1.90
2017-09-19T10:15:23.807Z,1.20
2017-09-19T10:17:52.091Z,1.10
2017-09-19T10:20:20.403Z,1.40
2017-09-19T10:22:48.718Z,1.93
2017-09-19T10:25:17.038Z,2.00
2017-09-19T10:27:46.850Z,2.30
2017-09-19T10:30:15.127Z,1.23
2017-09-19T10:32:43.435Z,0.90
2017-09-19T10:35:11.768Z,2.10
2017-09-19T10:37:40.163Z,1.70
2017-09-19T10:40:08.448Z,1.43
2017-09-19T10:42:36.758Z,1.20
2017-09-19T10:45:05.039Z,1.70
2017-09-19T10:47:33.314Z,2.33
2017-09-19T10:50:02.396Z,2.67
2017-09-19T10:52:30.671Z,2.00
2017-09-19T10:54:58.980Z,1.67
2017-09-19T10:57:27.267Z,2.10
2017-09-19T10:59:55.591Z,1.87
2017-09-19T11:02:23.872Z,2.70
2017-09-19T11:04:52.298Z,1.70
2017-09-19T11:07:20.575Z,1.77
2017-09-19T11:09:48.898Z,2.00
2017-09-19T11:12:17.214Z,2.23
2017-09-19T11:14:45.606Z,1.80
2017-09-19T11:17:13.918Z,3.17
2017-09-19T11:19:42.225Z,1.43
2017-09-19T11:22:10.505Z,2.10
2017-09-19T11:24:38.814Z,1.73
2017-09-19T11:27:11.354Z,2.83
2017-09-19T11:29:39.734Z,1.80
2017-09-19T11:32:08.003Z,1.47
2017-09-19T11:34:36.287Z,1.97
2017-09-19T11:37:05.374Z,1.20
2017-09-19T11:39:33.673Z,1.20
2017-09-19T11:42:01.975Z,1.37
2017-09-19T11:44:30.251Z,1.30
2017-09-19T11:46:58.563Z,1.60
2017-09-19T11:49:26.838Z,1.50
2017-09-19T11:51:55.170Z,2.07
2017-09-19T11:54:23.494Z,1.83
2017-09-19T11:56:51.775Z,2.20
2017-09-19T11:59:20.075Z,1.60
2017-09-19T12:01:48.383Z,1.40
2017-09-19T12:04:16.702Z,1.20
2017-09-19T12:06:44.979Z,1.30
2017-09-19T12:09:13.254Z,1.17
2017-09-19T12:11:41.583Z,0.93
2017-09-19T12:14:09.863Z,1.23
2017-09-19T12:16:38.151Z,1.20
2017-09-19T12:19:06.491Z,1.33
2017-09-19T12:21:35.204Z,1.07
2017-09-19T12:24:03.538Z,1.30
2017-09-19T12:26:32.582Z,1.30
2017-09-19T12:29:00.928Z,1.30
2017-09-19T12:31:29.206Z,1.30
2017-09-19T12:33:57.483Z,1.00
2017-09-19T12:36:25.794Z,1.10
2017-09-19T12:38:54.075Z,1.50
2017-09-19T12:41:23.118Z,1.17
2017-09-19T12:43:51.435Z,1.67
2017-09-19T12:46:19.778Z,1.43
2017-09-19T12:48:48.085Z,1.27
2017-09-19T12:51:16.454Z,1.30
2017-09-19T12:53:44.730Z,1.50
2017-09-19T12:56:13.162Z,1.10
2017-09-19T12:58:41.458Z,1.30
2017-09-19T13:01:09.729Z,1.10
2017-09-19T13:03:38.083Z,1.83
2017-09-19T13:06:06.363Z,1.67
2017-09-19T13:08:34.791Z,1.63
2017-09-19T13:11:03.137Z,1.80
2017-09-19T13:13:32.203Z,1.73
2017-09-19T13:16:00.483Z,1.87
2017-09-19T13:18:28.759Z,2.00
2017-09-19T13:20:57.067Z,2.00
2017-09-19T13:23:25.398Z,2.30
2017-09-19T13:25:53.803Z,2.27
2017-09-19T13:28:22.083Z,3.00
2017-09-19T13:31:02.334Z,2.57
2017-09-19T13:33:42.266Z,2.10
2017-09-19T13:36:10.579Z,1.97
2017-09-19T13:38:38.894Z,1.80
2017-09-19T13:41:07.183Z,1.50
2017-09-19T13:43:35.594Z,1.83
2017-09-19T13:46:05.394Z,1.53
2017-09-19T13:48:33.710Z,2.00
2017-09-19T13:51:02.219Z,1.13
2017-09-19T13:53:30.503Z,1.80
2017-09-19T13:55:58.778Z,1.30
2017-09-19T13:58:27.851Z,1.10
2017-09-19T14:00:56.126Z,1.40
2017-09-19T14:03:24.447Z,1.20
2017-09-19T14:05:52.751Z,1.23
2017-09-19T14:08:21.047Z,1.00
2017-09-19T14:10:49.359Z,1.00
2017-09-19T14:13:17.634Z,1.33
2017-09-19T14:15:45.938Z,1.10
2017-09-19T14:18:14.214Z,1.00
2017-09-19T14:20:42.524Z,1.10
2017-09-19T14:23:10.863Z,0.80
2017-09-19T14:25:39.142Z,1.03
2017-09-19T14:28:07.456Z,0.97
2017-09-19T14:30:35.783Z,1.13
2017-09-19T14:33:05.592Z,0.90
2017-09-19T14:35:33.927Z,0.90
2017-09-19T14:38:02.208Z,1.10
2017-09-19T14:40:30.487Z,0.97
2017-09-19T14:42:58.806Z,0.80
2017-09-19T14:45:27.106Z,1.00
2017-09-19T14:47:55.410Z,0.80
2017-09-19T14:50:23.685Z,1.10
2017-09-19T14:52:51.999Z,1.00
2017-09-19T14:55:20.420Z,0.97
2017-09-19T14:57:48.699Z,1.17
2017-09-19T15:00:17.022Z,1.00
2017-09-19T15:02:45.337Z,1.03
2017-09-19T15:05:13.703Z,0.93
2017-09-19T15:07:42.007Z,1.03
2017-09-19T15:10:10.286Z,1.00
2017-09-19T15:12:39.359Z,1.07
2017-09-19T15:15:07.646Z,1.13
2017-09-19T15:17:35.979Z,1.00
2017-09-19T15:20:04.297Z,1.43
2017-09-19T15:22:33.367Z,1.50
2017-09-19T15:25:01.647Z,1.20
2017-09-19T15:27:29.958Z,1.10
2017-09-19T15:29:58.282Z,2.27
2017-09-19T15:32:26.596Z,1.03
2017-09-19T15:34:54.875Z,1.00
2017-09-19T15:37:23.179Z,1.23
2017-09-19T15:39:51.564Z,1.00
2017-09-19T15:42:19.871Z,1.30
2017-09-19T15:44:48.190Z,1.07
2017-09-19T15:47:16.466Z,1.10
2017-09-19T15:49:44.907Z,1.10
2017-09-19T15:52:13.174Z,1.27
2017-09-19T15:54:41.470Z,1.10
2017-09-19T15:57:09.782Z,0.90
2017-09-19T15:59:38.054Z,1.60
2017-09-19T16:02:07.152Z,1.00
2017-09-19T16:04:35.559Z,1.20
2017-09-19T16:07:04.654Z,1.20
2017-09-19T16:09:32.962Z,1.00
2017-09-19T16:12:01.283Z,1.20
2017-09-19T16:14:29.602Z,1.00
2017-09-19T16:16:58.670Z,1.00
2017-09-19T16:19:26.991Z,0.90
2017-09-19T16:21:55.299Z,1.27
2017-09-19T16:24:25.117Z,1.20
2017-09-19T16:26:53.386Z,1.07
2017-09-19T16:29:21.709Z,0.90
2017-09-19T16:31:50.125Z,2.17
2017-09-19T16:34:18.399Z,1.10
2017-09-19T16:36:46.674Z,1.10
2017-09-19T16:39:15.843Z,1.00
2017-09-19T16:41:44.118Z,1.00
2017-09-19T16:44:12.395Z,0.90
2017-09-19T16:46:41.466Z,1.00
2017-09-19T16:49:09.747Z,1.23
2017-09-19T16:51:38.063Z,1.43
2017-09-19T16:54:06.396Z,0.90
2017-09-19T16:56:36.229Z,1.07
2017-09-19T16:59:04.609Z,1.13
2017-09-19T17:01:32.926Z,1.77
2017-09-19T17:04:01.240Z,1.90
2017-09-19T17:06:29.520Z,1.60
2017-09-19T17:08:57.919Z,2.30
2017-09-19T17:11:26.227Z,5.23
2017-09-19T17:13:54.578Z,5.87
2017-09-19T17:16:23.655Z,4.67
2017-09-19T17:18:51.955Z,5.47
2017-09-19T17:21:20.275Z,6.93
2017-09-19T17:23:50.286Z,5.20
2017-09-19T17:26:18.591Z,5.10
2017-09-19T17:28:46.871Z,3.90
2017-09-19T17:31:15.189Z,4.23
2017-09-19T17:33:43.462Z,3.73
2017-09-19T17:36:11.747Z,4.73
2017-09-19T17:38:40.831Z,4.30
2017-09-19T17:41:09.211Z,4.57
2017-09-19T17:43:37.495Z,5.57
2017-09-19T17:46:05.828Z,7.50
2017-09-19T17:48:34.162Z,7.97
2017-09-19T17:51:03.211Z,7.17
2017-09-19T17:53:31.651Z,6.07
2017-09-19T17:55:59.944Z,4.13
2017-09-19T17:58:28.219Z,5.30
2017-09-19T18:00:56.547Z,7.30
2017-09-19T18:03:24.863Z,8.30
2017-09-19T18:05:53.155Z,8.80
2017-09-19T18:08:21.471Z,8.60
2017-09-19T18:10:49.757Z,7.43
2017-09-19T18:13:18.272Z,9.80
2017-09-19T18:15:46.563Z,8.70
2017-09-19T18:18:14.850Z,7.70
2017-09-19T18:20:43.182Z,8.80
2017-09-19T18:23:12.398Z,7.00
2017-09-19T18:25:40.698Z,6.80
2017-09-19T18:28:09.091Z,7.77
2017-09-19T18:30:37.437Z,6.77
2017-09-19T18:33:05.786Z,4.63
2017-09-19T18:35:34.200Z,4.83
2017-09-19T18:38:02.518Z,4.03
2017-09-19T18:40:30.810Z,4.60
2017-09-19T18:42:59.328Z,4.70
2017-09-19T18:45:27.623Z,4.20
2017-09-19T18:47:56.023Z,4.13
2017-09-19T18:50:24.385Z,3.93
2017-09-19T18:52:53.455Z,3.73
2017-09-19T18:55:21.794Z,4.37
2017-09-19T18:57:50.843Z,3.63
2017-09-19T19:00:19.173Z,5.20
2017-09-19T19:02:47.491Z,6.10
2017-09-19T19:05:15.921Z,4.37
2017-09-19T19:07:45.723Z,4.20
2017-09-19T19:10:14.007Z,4.37
2017-09-19T19:12:42.349Z,7.00
2017-09-19T19:15:12.158Z,4.57
2017-09-19T19:17:40.434Z,4.60
2017-09-19T19:20:08.767Z,5.07
2017-09-19T19:22:37.091Z,5.03
2017-09-19T19:25:05.586Z,4.50
2017-09-19T19:27:33.979Z,6.90
2017-09-19T19:30:02.263Z,5.10
2017-09-19T19:32:30.716Z,5.27
2017-09-19T19:34:59.088Z,4.80
2017-09-19T19:37:27.382Z,4.80
2017-09-19T19:39:55.707Z,5.33
2017-09-19T19:42:23.995Z,4.60
2017-09-19T19:44:52.304Z,3.60
2017-09-19T19:47:20.619Z,3.70
2017-09-19T19:49:48.938Z,3.73
2017-09-19T19:52:17.986Z,3.30
2017-09-19T19:54:46.320Z,3.50
2017-09-19T19:57:14.629Z,3.00
2017-09-19T19:59:42.942Z,4.70
2017-09-19T20:02:11.307Z,3.60
2017-09-19T20:04:39.682Z,3.33
2017-09-19T20:07:08.846Z,4.17
2017-09-19T20:09:37.258Z,6.13
2017-09-19T20:12:06.514Z,4.30
2017-09-19T20:14:34.913Z,4.13
2017-09-19T20:17:03.196Z,3.90
2017-09-19T20:19:32.302Z,5.07
2017-09-19T20:22:01.526Z,5.10
2017-09-19T20:24:29.845Z,4.43
2017-09-19T20:26:58.127Z,3.80
2017-09-19T20:29:26.510Z,3.23
2017-09-19T20:31:54.823Z,2.80
2017-09-19T20:34:24.678Z,3.20
2017-09-19T20:36:53.951Z,3.00
2017-09-19T20:39:22.994Z,3.70
2017-09-19T20:41:51.316Z,4.50
2017-09-19T20:44:19.599Z,5.90
2017-09-19T20:46:48.130Z,5.30
2017-09-19T20:49:16.422Z,4.47
2017-09-19T20:51:45.236Z,2.70
2017-09-19T20:54:13.755Z,3.13
2017-09-19T20:56:42.158Z,3.20
2017-09-19T20:59:10.649Z,2.57
2017-09-19T21:01:39.233Z,2.83
2017-09-19T21:04:13.199Z,3.47
2017-09-19T21:06:47.134Z,2.30
2017-09-19T21:09:21.120Z,2.93
2017-09-19T21:11:56.158Z,4.30
2017-09-19T21:14:30.131Z,3.77
2017-09-19T21:17:04.680Z,3.33
2017-09-19T21:19:32.562Z,2.47
2017-09-19T21:22:01.606Z,2.43
2017-09-19T21:24:29.924Z,3.03
2017-09-19T21:26:58.294Z,2.30
2017-09-19T21:29:26.579Z,3.20
2017-09-19T21:31:55.803Z,2.20
2017-09-19T21:34:24.122Z,2.37
2017-09-19T21:36:52.471Z,2.43
2017-09-19T21:39:20.791Z,2.53
2017-09-19T21:41:49.074Z,3.20
2017-09-19T21:44:17.499Z,2.93
2017-09-19T21:46:45.779Z,3.10
2017-09-19T21:49:14.230Z,2.90
2017-09-19T21:51:43.603Z,3.30
2017-09-19T21:54:13.211Z,3.30
2017-09-19T21:56:41.522Z,3.50
2017-09-19T21:59:09.879Z,3.00
2017-09-19T22:01:39.001Z,3.93
2017-09-19T22:04:08.242Z,3.30
2017-09-19T22:06:36.779Z,3.30
2017-09-19T22:09:05.947Z,3.13
2017-09-19T22:11:35.311Z,3.33
2017-09-19T22:14:03.596Z,2.97
2017-09-19T22:16:31.974Z,2.53
2017-09-19T22:19:00.286Z,2.77
2017-09-19T22:21:29.330Z,3.77
2017-09-19T22:23:57.678Z,3.37
2017-09-19T22:26:25.990Z,3.23
2017-09-19T22:28:54.412Z,4.20
2017-09-19T22:31:22.749Z,2.83
2017-09-19T22:33:51.031Z,3.23
2017-09-19T22:36:20.082Z,3.43
2017-09-19T22:38:48.507Z,3.83
2017-09-19T22:41:16.790Z,3.77
2017-09-19T22:43:45.071Z,2.80
2017-09-19T22:46:13.387Z,4.40
2017-09-19T22:48:41.823Z,3.57
2017-09-19T22:51:10.175Z,3.70
2017-09-19T22:53:38.571Z,3.33
2017-09-19T22:56:06.959Z,3.07
2017-09-19T22:58:35.355Z,3.37
2017-09-19T23:01:04.550Z,2.83
2017-09-19T23:03:32.858Z,3.23
2017-09-19T23:06:01.141Z,3.50
2017-09-19T23:08:29.444Z,3.53
2017-09-19T23:10:57.719Z,3.70
2017-09-19T23:13:26.152Z,3.60
2017-09-19T23:15:54.869Z,4.30
2017-09-19T23:18:23.349Z,3.27
2017-09-19T23:20:51.786Z,4.17
2017-09-19T23:23:20.063Z,4.13
2017-09-19T23:25:48.371Z,3.87
2017-09-19T23:28:16.642Z,3.80
2017-09-19T23:30:45.715Z,3.87
2017-09-19T23:33:13.990Z,3.80
2017-09-19T23:35:42.415Z,3.70
2017-09-19T23:38:10.714Z,4.17
2017-09-19T23:40:39.023Z,5.80
2017-09-19T23:43:07.418Z,4.90
2017-09-19T23:45:36.232Z,3.93
2017-09-19T23:48:05.454Z,6.43
2017-09-19T23:50:35.523Z,4.37
2017-09-19T23:53:05.849Z,4.20
2017-09-19T23:55:34.259Z,4.67
2017-09-19T23:58:03.343Z,3.50
